Stephen, Minnesota
Current Conditions -  °F | °C
As of 4:15 AM on Tuesday 27 Jan 2015 (Local Time) from KHCO Reporting Station
Moderate Fog Moderate Fog  
Wind Chill: 15°   Ceiling: 200
Heat Index: 25°   Visibility: 0.25mi
Dew Point: 21°   Wind: 9mph
Humidity: 86%   Direction: 170°S
Pressure: 30.03"   Gusts: NA
Location:  48.45°N, 96.87°W
Report Text: KHCO 271015Z AUTO 17008KT 1/4SM FZFG OVC002 M04/M06 A3003 RMK AO2
Loading
Personal Weather Stations






























Interactive Weather Map New forecast layout! Learn more

10-Day Weather Forecast

Advertisements
Track Severe Weather on mobile